• Join FlightAware (Why Join?)
  • Login
  • US Flag 
07:53PM EDT


 

Airport Tracker/Info


-or-


 

Live Flight TrackerFlight Track Log ✈ SWA542 ✈ 10-Aug-2014 ✈ KBNA - KFLL

Flight Track Log - Related Links

Times and Time Zones

All times are in EDT time to prevent confusion due to time zone crossing. See the SWA542 flight status page for this flight to view local times or setup timezone preferences in your user account.

Time Position Orientation Groundspeed Altitude Reporting Facility
EDT Latitude Longitude Course Direction KTS MPH feet Rate Location/Type
09:18AM 36.1167 -86.6000 97° East 236 272 3,700  Level Nashville TRACON
09:19AM 36.0478 -86.5778 165° South 242 278 5,900 2,760 Climbing Memphis Center
09:20AM 35.9692 -86.5494 164° South 277 319 9,200 2,880 Climbing Memphis Center
09:21AM 35.8817 -86.5192 164° South 310 357 11,900 2,700 Climbing Memphis Center
09:22AM 35.7842 -86.4831 163° South 353 406 14,800 2,760 Climbing Memphis Center
09:23AM 35.6789 -86.4508 166° South 378 435 17,600 2,640 Climbing Memphis Center
09:24AM 35.5689 -86.4297 171° South 389 448 20,300 2,520 Climbing Memphis Center
09:25AM 35.4572 -86.4064 170° South 396 456 22,800 2,220 Climbing Memphis Center
09:26AM 35.3422 -86.3725 166° South 415 478 24,900 1,740 Climbing Memphis Center
09:27AM 35.2317 -86.3075 154° Southeast 428 493 26,500 1,560 Climbing Memphis Center
09:28AM 35.1131 -86.2433 156° South 451 519 28,100 1,620 Climbing Memphis Center
09:29AM 34.9803 -86.1758 157° South 461 531 29,900 1,620 Climbing Memphis Center
09:30AM 34.8550 -86.1233 161° South 469 540 31,500 1,560 Climbing Memphis Center
09:31AM 34.7383 -86.0739 161° South 474 545 33,200 1,620 Climbing Memphis Center
09:32AM 34.6158 -86.0186 160° South 472 543 34,800 1,440 Climbing Atlanta Center
09:33AM 34.4906 -85.9644 160° South 473 544 36,200 1,440 Climbing Atlanta Center
09:34AM 34.3403 -85.9008 161° South 474 545 37,800 1,320 Climbing Atlanta Center
09:35AM 34.2161 -85.8489 161° South 474 545 39,000 540 Climbing Atlanta Center
09:36AM 34.1022 -85.8019 161° South 472 543 39,000  Level Atlanta Center
09:37AM 33.9553 -85.7414 161° South 470 541 39,000  Level Atlanta Center
09:38AM 33.8339 -85.6906 161° South 466 536 39,000  Level Atlanta Center
09:39AM 33.7119 -85.6414 161° South 464 534 39,000  Level Atlanta Center
09:40AM 33.5922 -85.5903 160° South 461 531 39,000  Level Atlanta Center
09:41AM 33.4708 -85.5411 161° South 461 531 39,000  Level Atlanta Center
09:42AM 33.3242 -85.4789 160° South 464 534 39,000  Level Atlanta Center
09:44AM 33.2019 -85.4297 161° South 464 534 39,000  Level Atlanta Center
09:45AM 33.0797 -85.3794 161° South 466 536 39,000  Level Atlanta Center
09:46AM 32.9492 -85.3253 161° South 466 536 39,000  Level Atlanta Center
09:47AM 32.8261 -85.2739 161° South 466 536 39,000  Level Atlanta Center
09:48AM 32.7056 -85.2236 161° South 463 533 39,000  Level Atlanta Center
09:49AM 32.5836 -85.1744 161° South 463 533 39,000  Level Atlanta Center
09:50AM 32.4625 -85.1258 161° South 461 531 39,000  Level Atlanta Center
09:51AM 32.3189 -85.0681 161° South 457 526 39,000  Level Atlanta Center
09:52AM 32.2131 -85.0264 162° South 457 526 39,000  Level Atlanta Center
09:53AM 32.1158 -84.9850 160° South 480 552 39,000  Level Jacksonville Center
09:54AM 31.9975 -84.9381 161° South 469 540 39,000  Level Jacksonville Center
09:55AM 31.8753 -84.8914 162° South 460 529 39,000  Level Jacksonville Center
09:56AM 31.7611 -84.8472 162° South 450 518 39,000  Level Jacksonville Center
09:57AM 31.6428 -84.8008 162° South 450 518 39,000  Level Jacksonville Center
09:58AM 31.5222 -84.7544 162° South 450 518 39,000  Level Jacksonville Center
09:59AM 31.4042 -84.7061 161° South 450 518 39,000  Level Jacksonville Center
10:00AM 31.2856 -84.6622 162° South 450 518 39,000  Level Jacksonville Center
10:01AM 31.1672 -84.6139 161° South 450 518 39,000  Level Jacksonville Center
10:02AM 31.0489 -84.5681 162° South 455 524 39,000  Level Jacksonville Center
10:03AM 30.9283 -84.5225 162° South 455 524 39,000  Level Jacksonville Center
10:04AM 30.8100 -84.4744 161° South 455 524 39,000  Level Jacksonville Center
10:05AM 30.6894 -84.4289 162° South 461 531 39,000  Level Jacksonville Center
10:06AM 30.5711 -84.3811 161° South 461 531 39,000  Level Jacksonville Center
10:07AM 30.4633 -84.3119 151° Southeast 450 518 39,000  Level Jacksonville Center
10:08AM 30.3533 -84.2431 152° Southeast 450 518 39,000  Level Jacksonville Center
10:09AM 30.2456 -84.1742 151° Southeast 450 518 39,000  Level Jacksonville Center
10:10AM 30.1375 -84.1031 150° Southeast 450 518 39,000  Level Jacksonville Center
10:11AM 30.0275 -84.0322 151° Southeast 450 518 39,000  Level Jacksonville Center
10:12AM 29.9197 -83.9639 151° Southeast 450 518 39,000  Level Jacksonville Center
10:13AM 29.8117 -83.8931 150° Southeast 450 518 39,000  Level Jacksonville Center
10:14AM 29.7056 -83.8228 150° Southeast 450 518 39,000  Level Jacksonville Center
10:15AM 29.5892 -83.7786 162° South 445 512 39,000  Level Jacksonville Center
10:16AM 29.4725 -83.7369 163° South 445 512 39,000  Level Jacksonville Center
10:17AM 29.3433 -83.6931 164° South 445 512 39,000  Level Jacksonville Center
10:18AM 29.2247 -83.6517 163° South 445 512 39,000  Level Jacksonville Center
10:19AM 29.1142 -83.6033 159° South 440 506 39,000  Level Jacksonville Center
10:20AM 28.9978 -83.5478 157° South 440 506 39,000  Level Jacksonville Center
10:21AM 28.8831 -83.4947 158° South 446 513 39,000  Level Jacksonville Center
10:22AM 28.7706 -83.4397 157° South 446 513 39,000  Level Jacksonville Center
10:23AM 28.6603 -83.3800 155° Southeast 446 513 39,000  Level Jacksonville Center
10:24AM 28.5500 -83.3181 154° Southeast 441 507 39,000  Level Jacksonville Center
10:25AM 28.4417 -83.2586 154° Southeast 441 507 39,000  Level Jacksonville Center
10:26AM 28.3333 -83.1967 153° Southeast 441 507 39,000  Level Jacksonville Center
10:26AM 28.2886 -83.1731 155° Southeast 443 510 39,000  Level Miami Center
10:27AM 28.1797 -83.1100 153° Southeast 443 510 39,000  Level Miami Center
10:28AM 28.0578 -83.0164 146° Southeast 443 510 39,000  Level Miami Center
10:29AM 27.9561 -82.9400 146° Southeast 440 506 39,000  Level Miami Center
10:30AM 27.8575 -82.8675 147° Southeast 441 507 39,000  Level Miami Center
10:31AM 27.7394 -82.7833 148° Southeast 442 509 39,000  Level Miami Center
10:32AM 27.6314 -82.7039 147° Southeast 442 509 39,000 -120 Level Miami Center
10:33AM 27.5236 -82.6250 147° Southeast 442 509 38,800 -660 Descending Miami Center
10:34AM 27.4164 -82.5475 147° Southeast 441 507 37,700 -1,020 Descending Miami Center
10:35AM 27.3100 -82.4703 147° Southeast 438 504 36,700 -960 Descending Miami Center
10:36AM 27.2197 -82.4050 147° Southeast 440 506 35,800 -1,020 Descending Miami Center
10:37AM 27.0928 -82.3125 147° Southeast 450 518 34,700 -1,020 Descending Miami Center
10:38AM 26.9864 -82.2364 147° Southeast 450 518 33,700 -960 Descending Miami Center
10:40AM 26.8825 -82.1614 147° Southeast 448 516 32,800 -960 Descending Miami Center
10:41AM 26.7928 -82.0672 137° Southeast 449 517 31,800 -1,560 Descending Miami Center
10:42AM 26.7233 -81.9542 124° Southeast 447 514 29,600 -2,400 Descending Miami Center
10:43AM 26.6536 -81.8414 125° Southeast 445 512 26,900 -2,820 Descending Miami Center
10:44AM 26.5714 -81.7078 125° Southeast 439 505 23,800 -2,760 Descending Miami Center
10:45AM 26.5008 -81.5975 126° Southeast 413 475 21,300 -2,340 Descending Miami Center
10:46AM 26.4414 -81.5019 125° Southeast 402 463 19,000 -2,280 Descending Miami Center
10:47AM 26.3742 -81.3953 125° Southeast 393 452 16,600 -2,520 Descending Miami Center
10:48AM 26.3089 -81.2919 125° Southeast 378 435 13,900 -2,400 Descending Miami Center
10:49AM 26.2508 -81.1986 125° Southeast 374 430 11,600 -2,340 Descending Miami Center
10:49AM 26.2283 -81.1625 125° Southeast 364 419 10,700 -1,380 Descending Miami Center
10:50AM 26.1908 -81.1042 126° Southeast 346 398 10,200 -960 Descending Miami Center
10:51AM 26.1428 -81.0286 125° Southeast 304 350 9,100 -1,260 Descending Miami Center
10:52AM 26.1011 -80.9406 118° Southeast 295 339 7,700 -1,320 Descending Miami Center
10:53AM 26.0794 -80.8550 106° East 287 330 6,400 -900 Descending Miami Center
10:54AM 26.0792 -80.7669 90° East 276 318 5,900 -240 Descending Miami Center
10:55AM 26.0806 -80.7025 89° East 246 283 5,900  Level Miami Center
10:56AM 26.0786 -80.6183 91° East 240 276 6,000 -180 Climbing Miami Center
10:57AM 26.0789 -80.5464 90° East 214 246 5,600 -540 Descending Miami Center
10:58AM 26.0789 -80.4817 90° East 216 249 5,000 -840 Descending Miami Center
10:59AM 26.0772 -80.4119 92° East 213 245 4,000 -1,020 Descending Miami Center
11:00AM 26.0789 -80.3517 88° East 192 221 3,000 -960 Descending Miami Center
11:01AM 26.0786 -80.2914 90° East 181 208 2,100 -960 Descending Miami Center
11:02AM 26.0775 -80.2425 91° East 167 192 1,200 -720 Descending Miami Center
11:02AM 26.0775 -80.2386 90° East 181 208 1,300 -720 Climbing Miami Center
11:03AM 26.0761 -80.1983 92° East 135 155 500 -780 Descending Miami Center
11:03AM 26.0767 -80.1878 87° East 139 160 500 14,040 Level Miami Center
11:04AM 26.0764 -80.1494 90° East 139 160 19,000 17,880 Climbing Miami Center
11:06AM 26.0667 -80.1500 180° South  Level FlightAware Approximate